Seabulk Challenge — KNJL — position and weather

sailwx.info

Track history (hours):
 
Tides and Currents Weather Stations Pressure Air Temp Water Temp Dewpoint Dewpoint Depression Visibility Wind Speed Wind Dir Waves Ship Positions

Seabulk Challenge

Owner: Seabulk Tankers, Inc., Fort Lauderdale, FL. More information available from US FCC via Universal Licensing System and Coast Guard Vessel Documentation Center.

Last reported at 2015-Jan-21 05:25 UTC. Time now 2015-Jan-29 20:29 UTC.
Position N 25°32' W 080°01'.
Warning: this ship's position is 8 days out of date.

Length 192 m; draft 10.6 m.

Type: Tanker. MMSI: 303104000.

Date/timePositionNaut miles runAvg speedWind from/ knotsBaromVisibWave heightAir tempDewpointWater temp
2015-Jan-21 05:25N 25°32' W 080°01'1213.9
2015-Jan-21 04:33N 25°44' W 080°01'1414.3
2015-Jan-21 03:33N 25°58' W 079°59'1413.9
2015-Jan-21 02:33N 26°12' W 079°58'1313.2
2015-Jan-21 01:33N 26°25' W 079°57'1313.5
2015-Jan-21 00:33N 26°39' W 079°56'1313.1
2015-Jan-20 23:33N 26°52' W 079°55'1312.9
2015-Jan-20 22:33N 27°05' W 079°57'45712.6
2015-Jan-19 10:21N 34°04' W 076°28'1413.9
2015-Jan-19 09:18N 34°15' W 076°16'2313.3
2015-Jan-19 07:33N 34°31' W 075°56'31212.8
2015-Jan-18 07:12N 39°28' W 073°56'1014.4
2015-Jan-18 06:32N 39°37' W 073°53'1514.5
2015-Jan-18 05:29N 39°53' W 073°51'1614.4
2015-Jan-18 04:20N 40°09' W 073°49'810.4
2015-Jan-18 03:34N 40°17' W 073°49'9 9.3
2015-Jan-18 02:33N 40°25' W 073°54'1111.1
2015-Jan-18 01:33N 40°30' W 074°08'6 5.8
2015-Jan-18 00:31N 40°33' W 074°14'5 0.2
2015-Jan-16 21:33N 40°38' W 074°12'4 4.5
2015-Jan-16 20:33N 40°39' W 074°06'6 6.3
2015-Jan-16 19:33N 40°34' W 074°02'1111.0
2015-Jan-16 18:33N 40°28' W 073°49'7 7.0
2015-Jan-16 17:32N 40°21' W 073°47'10 9.8
2015-Jan-16 16:33N 40°11' W 073°46'15 5.0
2015-Jan-16 13:30N 39°56' W 073°42'25 6.4
2015-Jan-16 09:33N 39°32' W 073°49'1312.9
2015-Jan-16 08:33N 39°45' W 073°49'2411.6
2015-Jan-16 06:32N 40°08' W 073°45'1212.5
2015-Jan-16 05:33N 39°56' W 073°42'1413.7
2015-Jan-16 04:32N 39°42' W 073°41'1414.4
2015-Jan-16 03:32N 39°28' W 073°44'1414.2
2015-Jan-16 02:32N 39°14' W 073°47'1514.2
2015-Jan-16 01:27N 38°59' W 073°51'  
2015-Jan-13 18:22N 27°06' W 079°43'3418.2
2015-Jan-13 16:30N 26°32' W 079°46'1717.8
2015-Jan-13 15:33N 26°15' W 079°47'1817.5
2015-Jan-13 14:33N 25°58' W 079°49'2117.8
2015-Jan-13 13:22N 25°37' W 079°54'2217.5
2015-Jan-13 12:07N 25°16' W 080°00'  
Track history (hours):
 
Tides and Currents Weather Stations Pressure Air Temp Water Temp Dewpoint Dewpoint Depression Visibility Wind Speed Wind Dir Waves Ship Positions

Seabulk Challenge

Owner: Seabulk Tankers, Inc., Fort Lauderdale, FL. More information available from US FCC via Universal Licensing System and Coast Guard Vessel Documentation Center.

Last reported at 2015-Jan-21 05:25 UTC. Time now 2015-Jan-29 20:29 UTC.
Position N 25°32' W 080°01'.
Warning: this ship's position is 8 days out of date.

Length 192 m; draft 10.6 m.

Type: Tanker. MMSI: 303104000.

Date/timePositionNaut miles runAvg speedWind from/ knotsBaromVisibWave heightAir tempDewpointWater temp
2015-Jan-21 05:25N 25°32' W 080°01'1213.9
2015-Jan-21 04:33N 25°44' W 080°01'1414.3
2015-Jan-21 03:33N 25°58' W 079°59'1413.9
2015-Jan-21 02:33N 26°12' W 079°58'1313.2
2015-Jan-21 01:33N 26°25' W 079°57'1313.5
2015-Jan-21 00:33N 26°39' W 079°56'1313.1
2015-Jan-20 23:33N 26°52' W 079°55'1312.9
2015-Jan-20 22:33N 27°05' W 079°57'45712.6
2015-Jan-19 10:21N 34°04' W 076°28'1413.9
2015-Jan-19 09:18N 34°15' W 076°16'2313.3
2015-Jan-19 07:33N 34°31' W 075°56'31212.8
2015-Jan-18 07:12N 39°28' W 073°56'1014.4
2015-Jan-18 06:32N 39°37' W 073°53'1514.5
2015-Jan-18 05:29N 39°53' W 073°51'1614.4
2015-Jan-18 04:20N 40°09' W 073°49'810.4
2015-Jan-18 03:34N 40°17' W 073°49'9 9.3
2015-Jan-18 02:33N 40°25' W 073°54'1111.1
2015-Jan-18 01:33N 40°30' W 074°08'6 5.8
2015-Jan-18 00:31N 40°33' W 074°14'5 0.2
2015-Jan-16 21:33N 40°38' W 074°12'4 4.5
2015-Jan-16 20:33N 40°39' W 074°06'6 6.3
2015-Jan-16 19:33N 40°34' W 074°02'1111.0
2015-Jan-16 18:33N 40°28' W 073°49'7 7.0
2015-Jan-16 17:32N 40°21' W 073°47'10 9.8
2015-Jan-16 16:33N 40°11' W 073°46'15 5.0
2015-Jan-16 13:30N 39°56' W 073°42'25 6.4
2015-Jan-16 09:33N 39°32' W 073°49'1312.9
2015-Jan-16 08:33N 39°45' W 073°49'2411.6
2015-Jan-16 06:32N 40°08' W 073°45'1212.5
2015-Jan-16 05:33N 39°56' W 073°42'1413.7
2015-Jan-16 04:32N 39°42' W 073°41'1414.4
2015-Jan-16 03:32N 39°28' W 073°44'1414.2
2015-Jan-16 02:32N 39°14' W 073°47'1514.2
2015-Jan-16 01:27N 38°59' W 073°51'  
2015-Jan-13 18:22N 27°06' W 079°43'3418.2
2015-Jan-13 16:30N 26°32' W 079°46'1717.8
2015-Jan-13 15:33N 26°15' W 079°47'1817.5
2015-Jan-13 14:33N 25°58' W 079°49'2117.8
2015-Jan-13 13:22N 25°37' W 079°54'2217.5
2015-Jan-13 12:07N 25°16' W 080°00'  

Dump ship's entire track history